PWSweather.com
Personal Weather Stations
Station Observations
UISISLE1
Newport, Isle ofWight, ISLE OF WIGHT PO30 2JX

NewportIsle ofWight, ISLE OF WIGHT PO30 2JX

Lat: 50.72, Lon: -1.27

Elevation: 45

Station Type: Davis Vantage Pro Plus

http://www.isleofwightweather.co.uk

High Low Average
Temperature 45.7°F7.6°C 39.7°F4.3°C 42.4°F5.8°C
Dew Point 44.7°F7.1°C 37.9°F3.3°C 40.6°F4.8°C
Winds 5.5 mph 8.9 kmh Calm Calm 1.0 mph SSE1.6 kmh SSE
Wind Gusts 12.0 mph19.3 kmh -- 2.0 mph3.2 kmh
Humidity 96% 89% 93%
Pressure 30.33 in1027.1 mb 30.20 in1022.7 mb -
Precipitation 0.00 in0.0 mm - -
Hour Temp Dew Point Humidity Winds Wind Gusts Pressure Precip Precip Rate Daily Precip Total
12:00 AM 41.6°F5.3°C 39.4°F4.1°C 92% Calm Calm -- 30.29 in1025.7 mb - 0.00 in0.0 mm 0.00 in0.0 mm
12:15 AM 41.3°F5.2°C 39.2°F4.0°C 92% 0.3 mph SSE0.5 kmh SSE -- 30.30 in1026.1 mb - 0.00 in0.0 mm 0.00 in0.0 mm
12:30 AM 41.2°F5.1°C 39.1°F3.9°C 92% Calm Calm -- 30.30 in1026.1 mb - 0.00 in0.0 mm 0.00 in0.0 mm
12:45 AM 41.0°F5.0°C 38.8°F3.8°C 92% Calm Calm -- 30.30 in1026.1 mb - 0.00 in0.0 mm 0.00 in0.0 mm
01:00 AM 40.6°F4.8°C 38.5°F3.6°C 92% Calm Calm -- 30.30 in1026.1 mb - 0.00 in0.0 mm 0.00 in0.0 mm
01:15 AM 40.3°F4.6°C 38.2°F3.4°C 92% Calm Calm -- 30.30 in1026.1 mb - 0.00 in0.0 mm 0.00 in0.0 mm
01:30 AM 40.0°F4.4°C 37.9°F3.3°C 92% Calm Calm 1.0 mph1.6 kmh 30.30 in1026.1 mb - 0.00 in0.0 mm 0.00 in0.0 mm
01:45 AM 39.9°F4.4°C 38.0°F3.3°C 93% 2.6 mph WNW4.2 kmh WNW 4.1 mph6.6 kmh 30.30 in1026.1 mb - 0.00 in0.0 mm 0.00 in0.0 mm
02:00 AM 40.2°F4.6°C 38.3°F3.5°C 93% Calm Calm -- 30.31 in1026.4 mb - 0.00 in0.0 mm 0.00 in0.0 mm
02:15 AM 40.4°F4.7°C 38.5°F3.6°C 93% Calm Calm -- 30.32 in1026.8 mb - 0.00 in0.0 mm 0.00 in0.0 mm
02:30 AM 40.5°F4.7°C 38.6°F3.7°C 93% Calm Calm -- 30.32 in1026.8 mb - 0.00 in0.0 mm 0.00 in0.0 mm
02:45 AM 40.6°F4.8°C 38.7°F3.7°C 93% Calm Calm -- 30.33 in1027.1 mb - 0.00 in0.0 mm 0.00 in0.0 mm
03:00 AM 40.6°F4.8°C 38.7°F3.7°C 93% Calm Calm -- 30.32 in1026.8 mb - 0.00 in0.0 mm 0.00 in0.0 mm
03:15 AM 40.6°F4.8°C 38.7°F3.7°C 93% 0.3 mph WNW0.5 kmh WNW 1.0 mph1.6 kmh 30.32 in1026.8 mb - 0.00 in0.0 mm 0.00 in0.0 mm
03:30 AM 40.7°F4.8°C 39.1°F3.9°C 94% 0.6 mph WNW1.0 kmh WNW 1.0 mph1.6 kmh 30.32 in1026.8 mb - 0.00 in0.0 mm 0.00 in0.0 mm
03:45 AM 40.7°F4.8°C 39.1°F3.9°C 94% Calm Calm -- 30.32 in1026.8 mb - 0.00 in0.0 mm 0.00 in0.0 mm
04:00 AM 40.7°F4.8°C 39.1°F3.9°C 94% Calm Calm -- 30.32 in1026.8 mb - 0.00 in0.0 mm 0.00 in0.0 mm
04:15 AM 40.7°F4.8°C 39.1°F3.9°C 94% Calm Calm -- 30.32 in1026.8 mb - 0.00 in0.0 mm 0.00 in0.0 mm
04:30 AM 40.6°F4.8°C 39.0°F3.9°C 94% Calm Calm -- 30.32 in1026.8 mb - 0.00 in0.0 mm 0.00 in0.0 mm
04:45 AM 40.5°F4.7°C 38.9°F3.8°C 94% Calm Calm -- 30.32 in1026.8 mb - 0.00 in0.0 mm 0.00 in0.0 mm
05:00 AM 40.3°F4.6°C 38.7°F3.7°C 94% Calm Calm -- 30.32 in1026.8 mb - 0.00 in0.0 mm 0.00 in0.0 mm
05:15 AM 40.1°F4.5°C 38.5°F3.6°C 94% Calm Calm -- 30.32 in1026.8 mb - 0.00 in0.0 mm 0.00 in0.0 mm
05:30 AM 39.9°F4.4°C 38.3°F3.5°C 94% Calm Calm -- 30.32 in1026.8 mb - 0.00 in0.0 mm 0.00 in0.0 mm
05:45 AM 39.8°F4.3°C 38.2°F3.4°C 94% Calm Calm -- 30.32 in1026.8 mb - 0.00 in0.0 mm 0.00 in0.0 mm
06:00 AM 39.7°F4.3°C 38.1°F3.4°C 94% Calm Calm -- 30.32 in1026.8 mb - 0.00 in0.0 mm 0.00 in0.0 mm
06:15 AM 39.7°F4.3°C 38.1°F3.4°C 94% Calm Calm -- 30.33 in1027.1 mb - 0.00 in0.0 mm 0.00 in0.0 mm
06:30 AM 39.7°F4.3°C 38.1°F3.4°C 94% Calm Calm -- 30.32 in1026.8 mb - 0.00 in0.0 mm 0.00 in0.0 mm
06:45 AM 39.7°F4.3°C 38.1°F3.4°C 94% Calm Calm -- 30.32 in1026.8 mb - 0.00 in0.0 mm 0.00 in0.0 mm
07:00 AM 39.7°F4.3°C 38.1°F3.4°C 94% 0.2 mph NE0.3 kmh NE 2.0 mph3.2 kmh 30.31 in1026.4 mb - 0.00 in0.0 mm 0.00 in0.0 mm
07:15 AM 39.7°F4.3°C 38.1°F3.4°C 94% Calm Calm -- 30.31 in1026.4 mb - 0.00 in0.0 mm 0.00 in0.0 mm
07:30 AM 39.7°F4.3°C 38.1°F3.4°C 94% Calm Calm -- 30.32 in1026.8 mb - 0.00 in0.0 mm 0.00 in0.0 mm
07:45 AM 39.7°F4.3°C 38.1°F3.4°C 94% Calm Calm -- 30.32 in1026.8 mb - 0.00 in0.0 mm 0.00 in0.0 mm
08:00 AM 39.7°F4.3°C 38.1°F3.4°C 94% Calm Calm -- 30.32 in1026.8 mb - 0.00 in0.0 mm 0.00 in0.0 mm
08:15 AM 39.8°F4.3°C 38.2°F3.4°C 94% Calm Calm -- 30.32 in1026.8 mb - 0.00 in0.0 mm 0.00 in0.0 mm
08:30 AM 39.9°F4.4°C 38.3°F3.5°C 94% Calm Calm -- 30.32 in1026.8 mb - 0.00 in0.0 mm 0.00 in0.0 mm
08:45 AM 39.9°F4.4°C 38.3°F3.5°C 94% Calm Calm -- 30.32 in1026.8 mb - 0.00 in0.0 mm 0.00 in0.0 mm
09:00 AM 40.1°F4.5°C 38.5°F3.6°C 94% Calm Calm -- 30.33 in1027.1 mb - 0.00 in0.0 mm 0.00 in0.0 mm
09:15 AM 40.3°F4.6°C 39.0°F3.9°C 95% Calm Calm -- 30.33 in1027.1 mb - 0.00 in0.0 mm 0.00 in0.0 mm
09:30 AM 40.6°F4.8°C 39.3°F4.1°C 95% Calm Calm -- 30.33 in1027.1 mb - 0.00 in0.0 mm 0.00 in0.0 mm
09:45 AM 41.0°F5.0°C 39.7°F4.3°C 95% Calm Calm -- 30.33 in1027.1 mb - 0.00 in0.0 mm 0.00 in0.0 mm
10:00 AM 41.8°F5.4°C 40.5°F4.7°C 95% Calm Calm -- 30.33 in1027.1 mb - 0.00 in0.0 mm 0.00 in0.0 mm
10:15 AM 42.5°F5.8°C 41.4°F5.2°C 96% Calm Calm -- 30.33 in1027.1 mb - 0.00 in0.0 mm 0.00 in0.0 mm
10:30 AM 42.9°F6.1°C 41.8°F5.4°C 96% Calm Calm -- 30.33 in1027.1 mb - 0.00 in0.0 mm 0.00 in0.0 mm
10:45 AM 43.4°F6.3°C 42.3°F5.7°C 96% 0.2 mph ESE0.3 kmh ESE 1.0 mph1.6 kmh 30.33 in1027.1 mb - 0.00 in0.0 mm 0.00 in0.0 mm
11:00 AM 43.9°F6.6°C 42.8°F6.0°C 96% 0.4 mph E0.6 kmh E 1.0 mph1.6 kmh 30.33 in1027.1 mb - 0.00 in0.0 mm 0.00 in0.0 mm
11:15 AM 44.4°F6.9°C 43.3°F6.3°C 96% Calm Calm -- 30.32 in1026.8 mb - 0.00 in0.0 mm 0.00 in0.0 mm
11:30 AM 44.7°F7.1°C 43.6°F6.4°C 96% Calm Calm -- 30.32 in1026.8 mb - 0.00 in0.0 mm 0.00 in0.0 mm
11:45 AM 44.9°F7.2°C 43.8°F6.6°C 96% 0.6 mph E1.0 kmh E 3.0 mph4.8 kmh 30.32 in1026.8 mb - 0.00 in0.0 mm 0.00 in0.0 mm
12:00 PM 45.0°F7.2°C 43.9°F6.6°C 96% 1.2 mph E1.9 kmh E 2.0 mph3.2 kmh 30.31 in1026.4 mb - 0.00 in0.0 mm 0.00 in0.0 mm
12:15 PM 45.0°F7.2°C 43.9°F6.6°C 96% 0.1 mph E0.2 kmh E 1.0 mph1.6 kmh 30.30 in1026.1 mb - 0.00 in0.0 mm 0.00 in0.0 mm
12:30 PM 45.0°F7.2°C 43.9°F6.6°C 96% 1.4 mph S2.3 kmh S 5.0 mph8.0 kmh 30.30 in1026.1 mb - 0.00 in0.0 mm 0.00 in0.0 mm
12:45 PM 45.3°F7.4°C 44.2°F6.8°C 96% 1.1 mph SSE1.8 kmh SSE -- 30.29 in1025.7 mb - 0.00 in0.0 mm 0.00 in0.0 mm
01:00 PM 45.7°F7.6°C 44.6°F7.0°C 96% 0.4 mph SSE0.6 kmh SSE 2.0 mph3.2 kmh 30.29 in1025.7 mb - 0.00 in0.0 mm 0.00 in0.0 mm
01:15 PM 45.7°F7.6°C 44.7°F7.1°C 96% 1.8 mph SE2.9 kmh SE 3.0 mph4.8 kmh 30.29 in1025.7 mb - 0.00 in0.0 mm 0.00 in0.0 mm
01:30 PM 45.7°F7.6°C 44.6°F7.0°C 96% 1.9 mph SSE3.1 kmh SSE 2.0 mph3.2 kmh 30.28 in1025.4 mb - 0.00 in0.0 mm 0.00 in0.0 mm
01:45 PM 45.7°F7.6°C 44.6°F7.0°C 96% Calm Calm -- 30.28 in1025.4 mb - 0.00 in0.0 mm 0.00 in0.0 mm
02:00 PM 45.7°F7.6°C 44.6°F7.0°C 96% 1.1 mph SE1.8 kmh SE 2.0 mph3.2 kmh 30.28 in1025.4 mb - 0.00 in0.0 mm 0.00 in0.0 mm
02:15 PM 45.6°F7.6°C 44.5°F6.9°C 96% 2.1 mph SE3.4 kmh SE 4.0 mph6.4 kmh 30.28 in1025.4 mb - 0.00 in0.0 mm 0.00 in0.0 mm
02:30 PM 45.5°F7.5°C 44.2°F6.8°C 95% 2.3 mph ESE3.7 kmh ESE 4.0 mph6.4 kmh 30.27 in1025.1 mb - 0.00 in0.0 mm 0.00 in0.0 mm
02:45 PM 45.5°F7.5°C 44.1°F6.7°C 95% 2.9 mph E4.7 kmh E 6.0 mph9.7 kmh 30.27 in1025.1 mb - 0.00 in0.0 mm 0.00 in0.0 mm
03:00 PM 45.5°F7.5°C 44.1°F6.7°C 95% 0.3 mph ESE0.5 kmh ESE -- 30.27 in1025.1 mb - 0.00 in0.0 mm 0.00 in0.0 mm
03:15 PM 45.4°F7.4°C 44.1°F6.7°C 95% Calm Calm -- 30.26 in1024.7 mb - 0.00 in0.0 mm 0.00 in0.0 mm
03:30 PM 45.2°F7.3°C 43.9°F6.6°C 95% 2.8 mph E4.5 kmh E 3.0 mph4.8 kmh 30.26 in1024.7 mb - 0.00 in0.0 mm 0.00 in0.0 mm
03:45 PM 45.1°F7.3°C 43.5°F6.4°C 94% 2.4 mph SSE3.9 kmh SSE 5.0 mph8.0 kmh 30.26 in1024.7 mb - 0.00 in0.0 mm 0.00 in0.0 mm
04:00 PM 44.8°F7.1°C 43.2°F6.2°C 94% 1.8 mph SE2.9 kmh SE 4.0 mph6.4 kmh 30.26 in1024.7 mb - 0.00 in0.0 mm 0.00 in0.0 mm
04:15 PM 44.5°F6.9°C 42.6°F5.9°C 93% 3.8 mph SE6.1 kmh SE 8.0 mph12.9 kmh 30.26 in1024.7 mb - 0.00 in0.0 mm 0.00 in0.0 mm
04:30 PM 44.3°F6.8°C 42.4°F5.8°C 93% 0.6 mph SE1.0 kmh SE 3.0 mph4.8 kmh 30.26 in1024.7 mb - 0.00 in0.0 mm 0.00 in0.0 mm
04:45 PM 44.2°F6.8°C 42.3°F5.7°C 93% 4.5 mph SSE7.2 kmh SSE 6.0 mph9.7 kmh 30.26 in1024.7 mb - 0.00 in0.0 mm 0.00 in0.0 mm
05:00 PM 43.9°F6.6°C 42.0°F5.6°C 93% 1.7 mph SE2.7 kmh SE 5.0 mph8.0 kmh 30.26 in1024.7 mb - 0.00 in0.0 mm 0.00 in0.0 mm
05:15 PM 43.8°F6.6°C 41.6°F5.3°C 92% Calm Calm -- 30.26 in1024.7 mb - 0.00 in0.0 mm 0.00 in0.0 mm
05:30 PM 43.7°F6.5°C 41.5°F5.3°C 92% 0.2 mph SSW0.3 kmh SSW 1.0 mph1.6 kmh 30.26 in1024.7 mb - 0.00 in0.0 mm 0.00 in0.0 mm
05:45 PM 43.7°F6.5°C 41.5°F5.3°C 92% 0.8 mph SE1.3 kmh SE 1.0 mph1.6 kmh 30.26 in1024.7 mb - 0.00 in0.0 mm 0.00 in0.0 mm
06:00 PM 43.5°F6.4°C 41.3°F5.2°C 92% 2.4 mph NE3.9 kmh NE 3.0 mph4.8 kmh 30.26 in1024.7 mb - 0.00 in0.0 mm 0.00 in0.0 mm
06:15 PM 43.5°F6.4°C 41.3°F5.2°C 92% 1.2 mph SE1.9 kmh SE 2.0 mph3.2 kmh 30.26 in1024.7 mb - 0.00 in0.0 mm 0.00 in0.0 mm
06:30 PM 43.4°F6.3°C 41.2°F5.1°C 92% 2.7 mph SE4.3 kmh SE 5.0 mph8.0 kmh 30.26 in1024.7 mb - 0.00 in0.0 mm 0.00 in0.0 mm
06:45 PM 43.2°F6.2°C 41.0°F5.0°C 92% 4.1 mph ESE6.6 kmh ESE 6.0 mph9.7 kmh 30.26 in1024.7 mb - 0.00 in0.0 mm 0.00 in0.0 mm
07:00 PM 43.2°F6.2°C 41.0°F5.0°C 92% 1.2 mph SW1.9 kmh SW 2.0 mph3.2 kmh 30.26 in1024.7 mb - 0.00 in0.0 mm 0.00 in0.0 mm
07:15 PM 43.1°F6.2°C 40.9°F4.9°C 92% 2.1 mph SE3.4 kmh SE 3.0 mph4.8 kmh 30.26 in1024.7 mb - 0.00 in0.0 mm 0.00 in0.0 mm
07:30 PM 43.0°F6.1°C 40.6°F4.8°C 91% 3.8 mph SW6.1 kmh SW 6.0 mph9.7 kmh 30.26 in1024.7 mb - 0.00 in0.0 mm 0.00 in0.0 mm
07:45 PM 42.9°F6.1°C 40.5°F4.7°C 91% 3.2 mph SE5.1 kmh SE 3.0 mph4.8 kmh 30.26 in1024.7 mb - 0.00 in0.0 mm 0.00 in0.0 mm
08:00 PM 42.9°F6.1°C 40.5°F4.7°C 91% 2.5 mph SE4.0 kmh SE 5.0 mph8.0 kmh 30.26 in1024.7 mb - 0.00 in0.0 mm 0.00 in0.0 mm
08:15 PM 42.9°F6.1°C 40.5°F4.7°C 91% 4.1 mph SSW6.6 kmh SSW 7.0 mph11.3 kmh 30.26 in1024.7 mb - 0.00 in0.0 mm 0.00 in0.0 mm
08:30 PM 42.8°F6.0°C 40.3°F4.6°C 91% 2.4 mph E3.9 kmh E 5.0 mph8.0 kmh 30.26 in1024.7 mb - 0.00 in0.0 mm 0.00 in0.0 mm
08:45 PM 42.8°F6.0°C 40.1°F4.5°C 90% 1.3 mph SSE2.1 kmh SSE 5.0 mph8.0 kmh 30.25 in1024.4 mb - 0.00 in0.0 mm 0.00 in0.0 mm
09:00 PM 42.7°F5.9°C 40.0°F4.4°C 90% 4.3 mph SSE6.9 kmh SSE 8.0 mph12.9 kmh 30.25 in1024.4 mb - 0.00 in0.0 mm 0.00 in0.0 mm
09:15 PM 42.7°F5.9°C 40.0°F4.4°C 90% 3.1 mph SE5.0 kmh SE 7.0 mph11.3 kmh 30.24 in1024.0 mb - 0.00 in0.0 mm 0.00 in0.0 mm
09:30 PM 42.7°F5.9°C 40.0°F4.4°C 90% 2.0 mph S3.2 kmh S 4.0 mph6.4 kmh 30.24 in1024.0 mb - 0.00 in0.0 mm 0.00 in0.0 mm
09:45 PM 42.8°F6.0°C 40.0°F4.4°C 90% 1.9 mph S3.1 kmh S 3.0 mph4.8 kmh 30.23 in1023.7 mb - 0.00 in0.0 mm 0.00 in0.0 mm
10:00 PM 42.8°F6.0°C 40.1°F4.5°C 90% 0.7 mph SE1.1 kmh SE 3.0 mph4.8 kmh 30.23 in1023.7 mb - 0.00 in0.0 mm 0.00 in0.0 mm
10:15 PM 42.8°F6.0°C 40.1°F4.5°C 90% 5.5 mph SE8.9 kmh SE 6.0 mph9.7 kmh 30.22 in1023.4 mb - 0.00 in0.0 mm 0.00 in0.0 mm
10:30 PM 42.9°F6.1°C 40.2°F4.6°C 90% 2.7 mph ENE4.3 kmh ENE 5.0 mph8.0 kmh 30.22 in1023.4 mb - 0.00 in0.0 mm 0.00 in0.0 mm
10:45 PM 42.9°F6.1°C 39.9°F4.4°C 89% 0.6 mph SSE1.0 kmh SSE 3.0 mph4.8 kmh 30.22 in1023.4 mb - 0.00 in0.0 mm 0.00 in0.0 mm
11:00 PM 43.0°F6.1°C 40.0°F4.4°C 89% 1.7 mph ESE2.7 kmh ESE 5.0 mph8.0 kmh 30.22 in1023.4 mb - 0.00 in0.0 mm 0.00 in0.0 mm
11:15 PM 43.0°F6.1°C 40.0°F4.4°C 89% 2.9 mph S4.7 kmh S 4.0 mph6.4 kmh 30.21 in1023.0 mb - 0.00 in0.0 mm 0.00 in0.0 mm
11:30 PM 43.0°F6.1°C 40.0°F4.4°C 89% 3.6 mph SE5.8 kmh SE 6.0 mph9.7 kmh 30.21 in1023.0 mb - 0.00 in0.0 mm 0.00 in0.0 mm
11:45 PM 42.9°F6.1°C 39.9°F4.4°C 89% 4.2 mph SE6.8 kmh SE 12.0 mph19.3 kmh 30.20 in1022.7 mb - 0.00 in0.0 mm 0.00 in0.0 mm